TimeEDT,TemperatureF,Dew PointF,Humidity,Sea Level PressureIn,VisibilityMPH,Wind Direction,Wind SpeedMPH,Gust SpeedMPH,PrecipitationIn,Events,Conditions,WindDirDegrees,DateUTC
12:45 AM,55.4,50.0,82,29.70,20.0,WNW,13.8,-,N/A,,Scattered Clouds,300,2012-10-16 04:45:00
1:45 AM,53.6,48.2,82,29.71,20.0,WNW,11.5,-,N/A,,Scattered Clouds,300,2012-10-16 05:45:00
2:45 AM,51.8,46.4,82,29.70,20.0,WNW,16.1,-,N/A,,Partly Cloudy,300,2012-10-16 06:45:00
3:45 AM,51.8,42.8,71,29.70,20.0,WNW,13.8,23.0,N/A,,Clear,300,2012-10-16 07:45:00
4:45 AM,50.0,41.0,71,29.70,20.0,WNW,13.8,23.0,N/A,,Scattered Clouds,300,2012-10-16 08:45:00
7:50 AM,48.2,37.4,66,29.79,20.0,NW,11.5,23.0,N/A,,Scattered Clouds,310,2012-10-16 11:50:00
9:45 AM,50.0,37.4,62,29.81,20.0,NW,16.1,25.3,N/A,,Scattered Clouds,320,2012-10-16 13:45:00
10:50 AM,51.8,37.4,58,29.82,20.0,NW,17.3,34.5,N/A,,Scattered Clouds,310,2012-10-16 14:50:00
11:45 AM,53.6,39.2,58,29.82,20.0,NNW,21.9,34.5,N/A,,Scattered Clouds,330,2012-10-16 15:45:00
12:45 PM,53.6,39.2,58,29.81,20.0,NW,17.3,28.8,N/A,,Scattered Clouds,320,2012-10-16 16:45:00
1:45 PM,55.4,39.2,54,29.79,20.0,NW,17.3,26.5,N/A,,Scattered Clouds,320,2012-10-16 17:45:00
3:45 PM,55.4,39.2,54,29.80,20.0,WNW,13.8,19.6,N/A,,Partly Cloudy,290,2012-10-16 19:45:00
4:45 PM,55.4,37.4,51,29.81,20.0,WNW,17.3,23.0,N/A,,Partly Cloudy,300,2012-10-16 20:45:00
5:50 PM,51.8,37.4,58,29.82,20.0,NW,11.5,-,N/A,,Partly Cloudy,310,2012-10-16 21:50:00
6:45 PM,50.0,35.6,58,29.85,10.0,NW,13.8,-,N/A,,Clear,320,2012-10-16 22:45:00
7:45 PM,48.2,35.6,62,29.87,10.0,NNW,11.5,-,N/A,,Clear,330,2012-10-16 23:45:00
8:45 PM,44.6,35.6,71,29.90,10.0,West,5.8,-,N/A,,Clear,270,2012-10-17 00:45:00
9:45 PM,42.8,37.4,81,29.91,10.0,Variable,3.5,-,N/A,,Clear,0,2012-10-17 01:45:00
10:55 PM,39.2,35.6,87,29.93,20.0,Variable,3.5,-,N/A,,Clear,0,2012-10-17 02:55:00
11:45 PM,37.4,35.6,93,29.93,20.0,WNW,4.6,-,N/A,,Clear,300,2012-10-17 03:45:00